sensor_id;sensor_type;location;lat;lon;timestamp;temperature;humidity
13245;DHT22;6689;53.400;12.486;2022-08-21T00:01:30;19.40;99.90
13245;DHT22;6689;53.400;12.486;2022-08-21T00:03:57;19.40;99.90
13245;DHT22;6689;53.400;12.486;2022-08-21T00:06:26;19.40;99.90
13245;DHT22;6689;53.400;12.486;2022-08-21T00:08:53;19.40;99.90
13245;DHT22;6689;53.400;12.486;2022-08-21T00:11:21;19.40;99.90
13245;DHT22;6689;53.400;12.486;2022-08-21T00:13:48;19.30;99.90
13245;DHT22;6689;53.400;12.486;2022-08-21T00:16:17;19.30;99.90
13245;DHT22;6689;53.400;12.486;2022-08-21T00:18:50;19.30;99.90
13245;DHT22;6689;53.400;12.486;2022-08-21T00:21:18;19.30;99.90
13245;DHT22;6689;53.400;12.486;2022-08-21T00:23:46;19.20;99.90
13245;DHT22;6689;53.400;12.486;2022-08-21T00:26:13;19.20;99.90
13245;DHT22;6689;53.400;12.486;2022-08-21T00:28:42;19.20;99.90
13245;DHT22;6689;53.400;12.486;2022-08-21T00:31:12;19.20;99.90
13245;DHT22;6689;53.400;12.486;2022-08-21T00:33:39;19.10;99.90
13245;DHT22;6689;53.400;12.486;2022-08-21T00:36:12;19.10;99.90
13245;DHT22;6689;53.400;12.486;2022-08-21T00:38:41;19.10;99.90
13245;DHT22;6689;53.400;12.486;2022-08-21T00:41:10;19.00;99.90
13245;DHT22;6689;53.400;12.486;2022-08-21T00:43:38;19.00;99.90
13245;DHT22;6689;53.400;12.486;2022-08-21T00:46:07;19.00;99.90
13245;DHT22;6689;53.400;12.486;2022-08-21T00:48:36;18.90;99.90
13245;DHT22;6689;53.400;12.486;2022-08-21T00:51:06;18.90;99.90
13245;DHT22;6689;53.400;12.486;2022-08-21T00:53:39;18.90;99.90
13245;DHT22;6689;53.400;12.486;2022-08-21T00:56:09;18.90;99.90
13245;DHT22;6689;53.400;12.486;2022-08-21T00:58:40;18.80;99.90
13245;DHT22;6689;53.400;12.486;2022-08-21T01:01:09;18.80;99.90
13245;DHT22;6689;53.400;12.486;2022-08-21T01:03:37;18.80;99.90
13245;DHT22;6689;53.400;12.486;2022-08-21T01:06:06;18.70;99.90
13245;DHT22;6689;53.400;12.486;2022-08-21T01:08:36;18.70;99.90
13245;DHT22;6689;53.400;12.486;2022-08-21T01:11:03;18.70;99.90
13245;DHT22;6689;53.400;12.486;2022-08-21T01:13:34;18.80;99.90
13245;DHT22;6689;53.400;12.486;2022-08-21T01:16:04;18.80;99.90
13245;DHT22;6689;53.400;12.486;2022-08-21T01:18:32;18.70;99.90
13245;DHT22;6689;53.400;12.486;2022-08-21T01:21:07;18.70;99.90
13245;DHT22;6689;53.400;12.486;2022-08-21T01:23:34;18.70;99.90
13245;DHT22;6689;53.400;12.486;2022-08-21T01:26:04;18.60;99.90
13245;DHT22;6689;53.400;12.486;2022-08-21T01:28:34;18.60;99.90
13245;DHT22;6689;53.400;12.486;2022-08-21T01:31:06;18.50;99.90
13245;DHT22;6689;53.400;12.486;2022-08-21T01:33:34;18.50;99.90
13245;DHT22;6689;53.400;12.486;2022-08-21T01:36:05;18.50;99.90
13245;DHT22;6689;53.400;12.486;2022-08-21T01:38:34;18.40;99.90
13245;DHT22;6689;53.400;12.486;2022-08-21T01:41:01;18.40;99.90
13245;DHT22;6689;53.400;12.486;2022-08-21T01:43:28;18.30;99.90
13245;DHT22;6689;53.400;12.486;2022-08-21T01:45:57;18.30;99.90
13245;DHT22;6689;53.400;12.486;2022-08-21T01:48:24;18.30;99.90
13245;DHT22;6689;53.400;12.486;2022-08-21T01:50:52;18.30;99.90
13245;DHT22;6689;53.400;12.486;2022-08-21T01:53:21;18.20;99.90
13245;DHT22;6689;53.400;12.486;2022-08-21T01:55:48;18.20;99.90
13245;DHT22;6689;53.400;12.486;2022-08-21T01:58:17;18.20;99.90
13245;DHT22;6689;53.400;12.486;2022-08-21T02:00:44;18.10;99.90
13245;DHT22;6689;53.400;12.486;2022-08-21T02:03:11;18.10;99.90
13245;DHT22;6689;53.400;12.486;2022-08-21T02:05:38;18.10;99.90
13245;DHT22;6689;53.400;12.486;2022-08-21T02:08:07;18.10;99.90
13245;DHT22;6689;53.400;12.486;2022-08-21T02:10:36;18.10;99.90
13245;DHT22;6689;53.400;12.486;2022-08-21T02:13:03;18.00;99.90
13245;DHT22;6689;53.400;12.486;2022-08-21T02:15:33;18.00;99.90
13245;DHT22;6689;53.400;12.486;2022-08-21T02:18:02;18.00;99.90
13245;DHT22;6689;53.400;12.486;2022-08-21T02:20:32;18.00;99.90
13245;DHT22;6689;53.400;12.486;2022-08-21T02:23:00;18.00;99.90
13245;DHT22;6689;53.400;12.486;2022-08-21T02:25:28;17.90;99.90
13245;DHT22;6689;53.400;12.486;2022-08-21T02:28:02;17.90;99.90
13245;DHT22;6689;53.400;12.486;2022-08-21T02:30:33;18.00;99.90
13245;DHT22;6689;53.400;12.486;2022-08-21T02:33:02;17.90;99.90
13245;DHT22;6689;53.400;12.486;2022-08-21T02:35:29;17.80;99.90
13245;DHT22;6689;53.400;12.486;2022-08-21T02:37:58;17.80;99.90
13245;DHT22;6689;53.400;12.486;2022-08-21T02:40:29;17.80;99.90
13245;DHT22;6689;53.400;12.486;2022-08-21T02:42:59;17.80;99.90
13245;DHT22;6689;53.400;12.486;2022-08-21T02:45:27;17.80;99.90
13245;DHT22;6689;53.400;12.486;2022-08-21T02:47:58;17.80;99.90
13245;DHT22;6689;53.400;12.486;2022-08-21T02:50:30;17.70;99.90
13245;DHT22;6689;53.400;12.486;2022-08-21T02:52:59;17.70;99.90
13245;DHT22;6689;53.400;12.486;2022-08-21T02:55:30;17.80;99.90
13245;DHT22;6689;53.400;12.486;2022-08-21T02:58:07;17.70;99.90
13245;DHT22;6689;53.400;12.486;2022-08-21T03:00:37;17.70;99.90
13245;DHT22;6689;53.400;12.486;2022-08-21T03:03:05;17.70;99.90
13245;DHT22;6689;53.400;12.486;2022-08-21T03:05:34;17.70;99.90
13245;DHT22;6689;53.400;12.486;2022-08-21T03:08:04;17.60;99.90
13245;DHT22;6689;53.400;12.486;2022-08-21T03:10:32;17.70;99.90
13245;DHT22;6689;53.400;12.486;2022-08-21T03:12:59;17.70;99.90
13245;DHT22;6689;53.400;12.486;2022-08-21T03:15:30;17.60;99.90
13245;DHT22;6689;53.400;12.486;2022-08-21T03:17:58;17.80;99.90
13245;DHT22;6689;53.400;12.486;2022-08-21T03:20:27;17.60;99.90
13245;DHT22;6689;53.400;12.486;2022-08-21T03:22:55;17.60;99.90
13245;DHT22;6689;53.400;12.486;2022-08-21T03:25:24;17.60;99.90
13245;DHT22;6689;53.400;12.486;2022-08-21T03:27:52;17.50;99.90
13245;DHT22;6689;53.400;12.486;2022-08-21T03:30:22;17.50;99.90
13245;DHT22;6689;53.400;12.486;2022-08-21T03:32:51;17.50;99.90
13245;DHT22;6689;53.400;12.486;2022-08-21T03:35:19;17.50;99.90
13245;DHT22;6689;53.400;12.486;2022-08-21T03:37:47;17.60;99.90
13245;DHT22;6689;53.400;12.486;2022-08-21T03:40:16;17.50;99.90
13245;DHT22;6689;53.400;12.486;2022-08-21T03:42:45;17.60;99.90
13245;DHT22;6689;53.400;12.486;2022-08-21T03:45:14;17.50;99.90
13245;DHT22;6689;53.400;12.486;2022-08-21T03:47:53;17.50;99.90
13245;DHT22;6689;53.400;12.486;2022-08-21T03:50:24;17.50;99.90
13245;DHT22;6689;53.400;12.486;2022-08-21T03:52:52;17.50;99.90
13245;DHT22;6689;53.400;12.486;2022-08-21T03:55:19;17.50;99.90
13245;DHT22;6689;53.400;12.486;2022-08-21T03:57:48;17.40;99.90
13245;DHT22;6689;53.400;12.486;2022-08-21T04:00:17;17.40;99.90
13245;DHT22;6689;53.400;12.486;2022-08-21T04:02:45;17.40;99.90
13245;DHT22;6689;53.400;12.486;2022-08-21T04:05:15;17.40;99.90
13245;DHT22;6689;53.400;12.486;2022-08-21T04:07:54;17.30;99.90
13245;DHT22;6689;53.400;12.486;2022-08-21T04:10:22;17.30;99.90
13245;DHT22;6689;53.400;12.486;2022-08-21T04:12:51;17.30;99.90
13245;DHT22;6689;53.400;12.486;2022-08-21T04:15:20;17.30;99.90
13245;DHT22;6689;53.400;12.486;2022-08-21T04:17:49;17.30;99.90
13245;DHT22;6689;53.400;12.486;2022-08-21T04:20:19;17.30;99.90
13245;DHT22;6689;53.400;12.486;2022-08-21T04:22:49;17.30;99.90
13245;DHT22;6689;53.400;12.486;2022-08-21T04:25:16;17.20;99.90
13245;DHT22;6689;53.400;12.486;2022-08-21T04:27:45;17.30;99.90
13245;DHT22;6689;53.400;12.486;2022-08-21T04:30:14;17.20;99.90
13245;DHT22;6689;53.400;12.486;2022-08-21T04:32:43;17.20;99.90
13245;DHT22;6689;53.400;12.486;2022-08-21T04:35:11;17.20;99.90
13245;DHT22;6689;53.400;12.486;2022-08-21T04:37:45;17.30;99.90
13245;DHT22;6689;53.400;12.486;2022-08-21T04:40:15;17.30;99.90
13245;DHT22;6689;53.400;12.486;2022-08-21T04:42:46;17.30;99.90
13245;DHT22;6689;53.400;12.486;2022-08-21T04:45:20;17.20;99.90
13245;DHT22;6689;53.400;12.486;2022-08-21T04:47:51;17.20;99.90
13245;DHT22;6689;53.400;12.486;2022-08-21T04:50:19;17.20;99.90
13245;DHT22;6689;53.400;12.486;2022-08-21T04:52:49;17.20;99.90
13245;DHT22;6689;53.400;12.486;2022-08-21T04:55:17;17.30;99.90
13245;DHT22;6689;53.400;12.486;2022-08-21T04:57:45;17.30;99.90
13245;DHT22;6689;53.400;12.486;2022-08-21T05:00:15;17.40;99.90
13245;DHT22;6689;53.400;12.486;2022-08-21T05:02:45;17.40;99.90
13245;DHT22;6689;53.400;12.486;2022-08-21T05:05:14;17.40;99.90
13245;DHT22;6689;53.400;12.486;2022-08-21T05:07:42;17.40;99.90
13245;DHT22;6689;53.400;12.486;2022-08-21T05:10:14;17.40;99.90
13245;DHT22;6689;53.400;12.486;2022-08-21T05:12:42;17.40;99.90
13245;DHT22;6689;53.400;12.486;2022-08-21T05:15:10;17.40;99.90
13245;DHT22;6689;53.400;12.486;2022-08-21T05:17:41;17.40;99.90
13245;DHT22;6689;53.400;12.486;2022-08-21T05:20:11;17.40;99.90
13245;DHT22;6689;53.400;12.486;2022-08-21T05:22:40;17.50;99.90
13245;DHT22;6689;53.400;12.486;2022-08-21T05:25:09;17.50;99.90
13245;DHT22;6689;53.400;12.486;2022-08-21T05:27:38;17.50;99.90
13245;DHT22;6689;53.400;12.486;2022-08-21T05:30:07;17.60;99.90
13245;DHT22;6689;53.400;12.486;2022-08-21T05:32:35;17.60;99.90
13245;DHT22;6689;53.400;12.486;2022-08-21T05:35:04;17.60;99.90
13245;DHT22;6689;53.400;12.486;2022-08-21T05:37:32;17.60;99.90
13245;DHT22;6689;53.400;12.486;2022-08-21T05:40:02;17.70;99.90
13245;DHT22;6689;53.400;12.486;2022-08-21T05:42:31;17.70;99.90
13245;DHT22;6689;53.400;12.486;2022-08-21T05:45:04;17.80;99.90
13245;DHT22;6689;53.400;12.486;2022-08-21T05:47:33;17.90;99.90
13245;DHT22;6689;53.400;12.486;2022-08-21T05:50:00;17.90;99.90
13245;DHT22;6689;53.400;12.486;2022-08-21T05:52:28;17.80;99.90
13245;DHT22;6689;53.400;12.486;2022-08-21T05:54:55;17.90;99.90
13245;DHT22;6689;53.400;12.486;2022-08-21T05:57:26;17.90;99.90
13245;DHT22;6689;53.400;12.486;2022-08-21T05:59:54;17.90;99.90
13245;DHT22;6689;53.400;12.486;2022-08-21T06:02:25;17.90;99.90
13245;DHT22;6689;53.400;12.486;2022-08-21T06:04:55;18.00;99.90
13245;DHT22;6689;53.400;12.486;2022-08-21T06:07:25;18.10;99.90
13245;DHT22;6689;53.400;12.486;2022-08-21T06:09:52;18.20;99.90
13245;DHT22;6689;53.400;12.486;2022-08-21T06:12:21;18.40;99.90
13245;DHT22;6689;53.400;12.486;2022-08-21T06:14:49;18.40;99.90
13245;DHT22;6689;53.400;12.486;2022-08-21T06:17:18;18.60;99.90
13245;DHT22;6689;53.400;12.486;2022-08-21T06:19:52;18.70;99.90
13245;DHT22;6689;53.400;12.486;2022-08-21T06:22:27;18.90;99.90
13245;DHT22;6689;53.400;12.486;2022-08-21T06:24:55;19.10;99.90
13245;DHT22;6689;53.400;12.486;2022-08-21T06:27:24;19.30;99.90
13245;DHT22;6689;53.400;12.486;2022-08-21T06:29:55;19.50;99.90
13245;DHT22;6689;53.400;12.486;2022-08-21T06:32:23;19.70;99.90
13245;DHT22;6689;53.400;12.486;2022-08-21T06:34:52;19.80;99.90
13245;DHT22;6689;53.400;12.486;2022-08-21T06:37:20;20.00;99.90
13245;DHT22;6689;53.400;12.486;2022-08-21T06:39:47;20.30;99.90
13245;DHT22;6689;53.400;12.486;2022-08-21T06:42:16;20.50;99.90
13245;DHT22;6689;53.400;12.486;2022-08-21T06:44:45;20.80;99.90
13245;DHT22;6689;53.400;12.486;2022-08-21T06:47:12;21.10;99.90
13245;DHT22;6689;53.400;12.486;2022-08-21T06:49:40;21.40;99.90
13245;DHT22;6689;53.400;12.486;2022-08-21T06:52:11;21.50;99.90
13245;DHT22;6689;53.400;12.486;2022-08-21T06:54:41;21.90;70.30
13245;DHT22;6689;53.400;12.486;2022-08-21T06:57:08;22.20;87.70
13245;DHT22;6689;53.400;12.486;2022-08-21T06:59:36;22.20;51.00
13245;DHT22;6689;53.400;12.486;2022-08-21T07:02:04;22.30;30.20
13245;DHT22;6689;53.400;12.486;2022-08-21T07:04:31;22.50;31.00
13245;DHT22;6689;53.400;12.486;2022-08-21T07:06:58;22.80;13.20
13245;DHT22;6689;53.400;12.486;2022-08-21T07:09:36;22.90;1.00
13245;DHT22;6689;53.400;12.486;2022-08-21T07:12:04;23.00;1.80
13245;DHT22;6689;53.400;12.486;2022-08-21T07:14:41;23.10;1.00
13245;DHT22;6689;53.400;12.486;2022-08-21T07:17:08;23.10;1.00
13245;DHT22;6689;53.400;12.486;2022-08-21T07:19:37;23.10;1.00
13245;DHT22;6689;53.400;12.486;2022-08-21T07:22:05;23.20;1.00
13245;DHT22;6689;53.400;12.486;2022-08-21T07:24:36;23.30;1.00
13245;DHT22;6689;53.400;12.486;2022-08-21T07:27:04;23.30;1.00
13245;DHT22;6689;53.400;12.486;2022-08-21T07:29:32;23.20;1.00
13245;DHT22;6689;53.400;12.486;2022-08-21T07:32:03;23.10;1.00
13245;DHT22;6689;53.400;12.486;2022-08-21T07:34:41;23.10;1.00
13245;DHT22;6689;53.400;12.486;2022-08-21T07:37:08;23.00;1.00
13245;DHT22;6689;53.400;12.486;2022-08-21T07:39:37;22.90;1.00
13245;DHT22;6689;53.400;12.486;2022-08-21T07:42:07;22.80;1.00
13245;DHT22;6689;53.400;12.486;2022-08-21T07:44:36;22.80;1.00
13245;DHT22;6689;53.400;12.486;2022-08-21T07:47:04;22.80;1.00
13245;DHT22;6689;53.400;12.486;2022-08-21T07:49:32;22.70;1.00
13245;DHT22;6689;53.400;12.486;2022-08-21T07:52:02;22.90;1.00
13245;DHT22;6689;53.400;12.486;2022-08-21T07:54:31;22.80;1.00
13245;DHT22;6689;53.400;12.486;2022-08-21T07:57:15;22.80;1.00
13245;DHT22;6689;53.400;12.486;2022-08-21T07:59:42;22.90;1.00
13245;DHT22;6689;53.400;12.486;2022-08-21T08:02:22;23.00;1.00
13245;DHT22;6689;53.400;12.486;2022-08-21T08:04:54;23.20;1.00
13245;DHT22;6689;53.400;12.486;2022-08-21T08:07:39;23.20;1.00
13245;DHT22;6689;53.400;12.486;2022-08-21T08:10:07;23.30;1.00
13245;DHT22;6689;53.400;12.486;2022-08-21T08:12:55;23.40;1.00
13245;DHT22;6689;53.400;12.486;2022-08-21T08:15:27;23.40;1.00
13245;DHT22;6689;53.400;12.486;2022-08-21T08:18:08;23.50;1.00
13245;DHT22;6689;53.400;12.486;2022-08-21T08:20:41;23.50;1.00
13245;DHT22;6689;53.400;12.486;2022-08-21T08:23:12;23.70;1.00
13245;DHT22;6689;53.400;12.486;2022-08-21T08:25:53;23.90;1.00
13245;DHT22;6689;53.400;12.486;2022-08-21T08:31:27;23.90;1.00
13245;DHT22;6689;53.400;12.486;2022-08-21T08:34:08;24.00;1.00
13245;DHT22;6689;53.400;12.486;2022-08-21T08:36:37;24.20;1.00
13245;DHT22;6689;53.400;12.486;2022-08-21T08:39:06;24.30;1.00
13245;DHT22;6689;53.400;12.486;2022-08-21T08:41:47;24.20;1.00
13245;DHT22;6689;53.400;12.486;2022-08-21T08:44:17;24.50;1.00
13245;DHT22;6689;53.400;12.486;2022-08-21T08:47:06;24.40;1.00
13245;DHT22;6689;53.400;12.486;2022-08-21T08:49:48;24.50;1.00
13245;DHT22;6689;53.400;12.486;2022-08-21T08:52:20;24.60;1.00
13245;DHT22;6689;53.400;12.486;2022-08-21T08:55:06;24.70;1.00
13245;DHT22;6689;53.400;12.486;2022-08-21T08:57:49;24.80;1.00
13245;DHT22;6689;53.400;12.486;2022-08-21T09:00:20;24.90;1.00
13245;DHT22;6689;53.400;12.486;2022-08-21T09:03:01;24.90;1.00
13245;DHT22;6689;53.400;12.486;2022-08-21T09:05:45;24.80;1.00
13245;DHT22;6689;53.400;12.486;2022-08-21T09:08:37;24.90;1.00
13245;DHT22;6689;53.400;12.486;2022-08-21T09:11:13;25.00;1.00
13245;DHT22;6689;53.400;12.486;2022-08-21T09:13:52;25.00;1.00
13245;DHT22;6689;53.400;12.486;2022-08-21T09:16:28;25.10;1.00
13245;DHT22;6689;53.400;12.486;2022-08-21T09:19:09;25.10;1.00
13245;DHT22;6689;53.400;12.486;2022-08-21T09:21:49;25.10;1.00
13245;DHT22;6689;53.400;12.486;2022-08-21T09:24:32;25.10;1.00
13245;DHT22;6689;53.400;12.486;2022-08-21T09:27:09;25.30;1.00
13245;DHT22;6689;53.400;12.486;2022-08-21T09:29:45;25.40;1.00
13245;DHT22;6689;53.400;12.486;2022-08-21T09:32:17;25.40;1.00
13245;DHT22;6689;53.400;12.486;2022-08-21T09:35:00;25.60;1.00
13245;DHT22;6689;53.400;12.486;2022-08-21T09:37:29;25.60;1.00
13245;DHT22;6689;53.400;12.486;2022-08-21T09:39:58;25.70;1.00
13245;DHT22;6689;53.400;12.486;2022-08-21T09:42:30;25.70;1.00
13245;DHT22;6689;53.400;12.486;2022-08-21T09:45:11;25.90;1.00
13245;DHT22;6689;53.400;12.486;2022-08-21T09:47:50;25.80;1.00
13245;DHT22;6689;53.400;12.486;2022-08-21T09:50:22;25.90;1.00
13245;DHT22;6689;53.400;12.486;2022-08-21T09:53:00;25.60;1.00
13245;DHT22;6689;53.400;12.486;2022-08-21T09:55:34;25.90;1.00
13245;DHT22;6689;53.400;12.486;2022-08-21T09:58:20;25.90;1.00
13245;DHT22;6689;53.400;12.486;2022-08-21T10:00:57;25.90;1.00
13245;DHT22;6689;53.400;12.486;2022-08-21T10:03:38;25.90;1.00
13245;DHT22;6689;53.400;12.486;2022-08-21T10:06:25;26.10;1.00
13245;DHT22;6689;53.400;12.486;2022-08-21T10:09:04;26.20;1.00
13245;DHT22;6689;53.400;12.486;2022-08-21T10:11:35;26.40;1.00
13245;DHT22;6689;53.400;12.486;2022-08-21T10:14:12;26.30;1.00
13245;DHT22;6689;53.400;12.486;2022-08-21T10:17:00;26.20;1.00
13245;DHT22;6689;53.400;12.486;2022-08-21T10:19:49;26.40;1.00
13245;DHT22;6689;53.400;12.486;2022-08-21T10:23:02;26.40;1.00
13245;DHT22;6689;53.400;12.486;2022-08-21T10:25:50;26.30;1.00
13245;DHT22;6689;53.400;12.486;2022-08-21T10:28:25;26.20;1.00
13245;DHT22;6689;53.400;12.486;2022-08-21T10:31:14;26.20;1.00
13245;DHT22;6689;53.400;12.486;2022-08-21T10:33:49;26.30;1.00
13245;DHT22;6689;53.400;12.486;2022-08-21T10:36:23;26.40;1.00
13245;DHT22;6689;53.400;12.486;2022-08-21T10:39:04;26.40;1.00
13245;DHT22;6689;53.400;12.486;2022-08-21T10:42:13;26.50;1.00
13245;DHT22;6689;53.400;12.486;2022-08-21T10:44:52;26.80;1.00
13245;DHT22;6689;53.400;12.486;2022-08-21T10:47:34;26.90;1.00
13245;DHT22;6689;53.400;12.486;2022-08-21T10:50:08;26.70;1.00
13245;DHT22;6689;53.400;12.486;2022-08-21T10:52:51;26.80;1.00
13245;DHT22;6689;53.400;12.486;2022-08-21T10:55:48;26.90;1.00
13245;DHT22;6689;53.400;12.486;2022-08-21T10:58:36;26.90;1.00
13245;DHT22;6689;53.400;12.486;2022-08-21T11:01:20;27.20;1.00
13245;DHT22;6689;53.400;12.486;2022-08-21T11:04:09;27.20;1.00
13245;DHT22;6689;53.400;12.486;2022-08-21T11:06:42;27.30;99.90
13245;DHT22;6689;53.400;12.486;2022-08-21T11:09:22;27.30;1.00
13245;DHT22;6689;53.400;12.486;2022-08-21T11:12:20;27.50;1.00
13245;DHT22;6689;53.400;12.486;2022-08-21T11:14:55;27.50;1.00
13245;DHT22;6689;53.400;12.486;2022-08-21T11:17:34;27.50;1.00
13245;DHT22;6689;53.400;12.486;2022-08-21T11:20:26;27.60;1.00
13245;DHT22;6689;53.400;12.486;2022-08-21T11:22:58;27.80;1.00
13245;DHT22;6689;53.400;12.486;2022-08-21T11:25:42;27.80;1.00
13245;DHT22;6689;53.400;12.486;2022-08-21T11:31:55;27.90;1.00
13245;DHT22;6689;53.400;12.486;2022-08-21T11:34:46;27.90;1.00
13245;DHT22;6689;53.400;12.486;2022-08-21T11:37:21;27.80;1.00
13245;DHT22;6689;53.400;12.486;2022-08-21T11:39:56;27.80;1.00
13245;DHT22;6689;53.400;12.486;2022-08-21T11:42:47;27.80;1.00
13245;DHT22;6689;53.400;12.486;2022-08-21T11:45:26;27.90;1.00
13245;DHT22;6689;53.400;12.486;2022-08-21T11:48:34;27.90;1.00
13245;DHT22;6689;53.400;12.486;2022-08-21T11:51:07;27.80;1.00
13245;DHT22;6689;53.400;12.486;2022-08-21T11:53:48;27.80;99.90
13245;DHT22;6689;53.400;12.486;2022-08-21T11:56:35;27.60;99.90
13245;DHT22;6689;53.400;12.486;2022-08-21T11:59:08;27.60;99.90
13245;DHT22;6689;53.400;12.486;2022-08-21T12:01:52;27.60;99.90
13245;DHT22;6689;53.400;12.486;2022-08-21T12:04:29;27.50;1.40
13245;DHT22;6689;53.400;12.486;2022-08-21T12:07:11;27.60;1.00
13245;DHT22;6689;53.400;12.486;2022-08-21T12:09:39;27.60;99.90
13245;DHT22;6689;53.400;12.486;2022-08-21T12:12:25;27.60;99.90
13245;DHT22;6689;53.400;12.486;2022-08-21T12:15:23;27.60;99.90
13245;DHT22;6689;53.400;12.486;2022-08-21T12:17:59;27.40;99.90
13245;DHT22;6689;53.400;12.486;2022-08-21T12:20:44;27.70;99.90
13245;DHT22;6689;53.400;12.486;2022-08-21T12:23:28;27.70;99.90
13245;DHT22;6689;53.400;12.486;2022-08-21T12:26:26;27.80;99.90
13245;DHT22;6689;53.400;12.486;2022-08-21T12:29:15;28.10;99.90
13245;DHT22;6689;53.400;12.486;2022-08-21T12:32:00;28.20;99.90
13245;DHT22;6689;53.400;12.486;2022-08-21T12:34:46;28.40;99.90
13245;DHT22;6689;53.400;12.486;2022-08-21T12:37:45;28.30;99.90
13245;DHT22;6689;53.400;12.486;2022-08-21T12:40:31;28.50;99.90
13245;DHT22;6689;53.400;12.486;2022-08-21T12:43:15;28.20;99.90
13245;DHT22;6689;53.400;12.486;2022-08-21T12:45:58;28.50;1.00
13245;DHT22;6689;53.400;12.486;2022-08-21T12:48:31;28.50;1.00
13245;DHT22;6689;53.400;12.486;2022-08-21T12:51:16;28.80;99.90
13245;DHT22;6689;53.400;12.486;2022-08-21T12:57:01;29.30;99.90
13245;DHT22;6689;53.400;12.486;2022-08-21T12:59:42;29.50;1.40
13245;DHT22;6689;53.400;12.486;2022-08-21T13:02:19;29.60;99.90
13245;DHT22;6689;53.400;12.486;2022-08-21T13:05:05;28.80;99.90
13245;DHT22;6689;53.400;12.486;2022-08-21T13:07:35;29.30;99.90
13245;DHT22;6689;53.400;12.486;2022-08-21T13:10:21;29.50;99.90
13245;DHT22;6689;53.400;12.486;2022-08-21T13:13:07;29.60;99.90
13245;DHT22;6689;53.400;12.486;2022-08-21T13:15:57;29.80;99.90
13245;DHT22;6689;53.400;12.486;2022-08-21T13:18:28;29.90;99.90
13245;DHT22;6689;53.400;12.486;2022-08-21T13:21:13;29.80;99.90
13245;DHT22;6689;53.400;12.486;2022-08-21T13:23:43;29.80;99.90
13245;DHT22;6689;53.400;12.486;2022-08-21T13:26:21;29.50;99.90
13245;DHT22;6689;53.400;12.486;2022-08-21T13:29:27;29.70;99.90
13245;DHT22;6689;53.400;12.486;2022-08-21T13:32:00;29.50;99.90
13245;DHT22;6689;53.400;12.486;2022-08-21T13:34:33;29.80;99.90
13245;DHT22;6689;53.400;12.486;2022-08-21T13:37:04;29.80;99.90
13245;DHT22;6689;53.400;12.486;2022-08-21T13:39:49;29.80;99.90
13245;DHT22;6689;53.400;12.486;2022-08-21T13:42:20;29.50;99.90
13245;DHT22;6689;53.400;12.486;2022-08-21T13:44:52;29.40;99.90
13245;DHT22;6689;53.400;12.486;2022-08-21T13:47:21;29.30;99.90
13245;DHT22;6689;53.400;12.486;2022-08-21T13:49:52;29.30;99.90
13245;DHT22;6689;53.400;12.486;2022-08-21T13:52:24;29.10;99.90
13245;DHT22;6689;53.400;12.486;2022-08-21T13:54:54;29.00;99.90
13245;DHT22;6689;53.400;12.486;2022-08-21T13:57:31;28.90;99.90
13245;DHT22;6689;53.400;12.486;2022-08-21T14:00:15;28.90;99.90
13245;DHT22;6689;53.400;12.486;2022-08-21T14:03:03;28.80;99.90
13245;DHT22;6689;53.400;12.486;2022-08-21T14:05:33;28.80;99.90
13245;DHT22;6689;53.400;12.486;2022-08-21T14:08:05;28.70;99.90
13245;DHT22;6689;53.400;12.486;2022-08-21T14:10:49;28.70;99.90
13245;DHT22;6689;53.400;12.486;2022-08-21T14:13:38;28.70;99.90
13245;DHT22;6689;53.400;12.486;2022-08-21T14:16:15;28.70;99.90
13245;DHT22;6689;53.400;12.486;2022-08-21T14:19:09;28.60;99.90
13245;DHT22;6689;53.400;12.486;2022-08-21T14:21:41;28.60;99.90
13245;DHT22;6689;53.400;12.486;2022-08-21T14:24:28;28.60;99.90
13245;DHT22;6689;53.400;12.486;2022-08-21T14:27:04;28.60;99.90
13245;DHT22;6689;53.400;12.486;2022-08-21T14:29:35;28.60;99.90
13245;DHT22;6689;53.400;12.486;2022-08-21T14:32:20;28.60;99.90
13245;DHT22;6689;53.400;12.486;2022-08-21T14:35:03;28.50;99.90
13245;DHT22;6689;53.400;12.486;2022-08-21T14:37:45;28.50;99.90
13245;DHT22;6689;53.400;12.486;2022-08-21T14:40:17;28.40;99.90
13245;DHT22;6689;53.400;12.486;2022-08-21T14:42:58;28.50;99.90
13245;DHT22;6689;53.400;12.486;2022-08-21T14:45:30;28.50;99.90
13245;DHT22;6689;53.400;12.486;2022-08-21T14:48:07;28.50;99.90
13245;DHT22;6689;53.400;12.486;2022-08-21T14:50:42;28.50;99.90
13245;DHT22;6689;53.400;12.486;2022-08-21T14:53:13;28.50;99.90
13245;DHT22;6689;53.400;12.486;2022-08-21T14:55:54;28.40;99.90
13245;DHT22;6689;53.400;12.486;2022-08-21T14:58:38;28.20;99.90
13245;DHT22;6689;53.400;12.486;2022-08-21T15:01:08;28.30;99.90
13245;DHT22;6689;53.400;12.486;2022-08-21T15:03:37;28.20;99.90
13245;DHT22;6689;53.400;12.486;2022-08-21T15:06:07;27.90;99.90
13245;DHT22;6689;53.400;12.486;2022-08-21T15:08:36;27.80;99.90
13245;DHT22;6689;53.400;12.486;2022-08-21T15:11:20;27.90;99.90
13245;DHT22;6689;53.400;12.486;2022-08-21T15:14:06;27.40;99.90
13245;DHT22;6689;53.400;12.486;2022-08-21T15:16:42;27.70;99.90
13245;DHT22;6689;53.400;12.486;2022-08-21T15:19:36;27.80;99.90
13245;DHT22;6689;53.400;12.486;2022-08-21T15:22:05;27.90;99.90
13245;DHT22;6689;53.400;12.486;2022-08-21T15:24:36;27.90;99.90
13245;DHT22;6689;53.400;12.486;2022-08-21T15:27:08;27.90;99.90
13245;DHT22;6689;53.400;12.486;2022-08-21T15:29:37;27.90;99.90
13245;DHT22;6689;53.400;12.486;2022-08-21T15:32:17;28.10;99.90
13245;DHT22;6689;53.400;12.486;2022-08-21T15:34:54;28.10;1.00
13245;DHT22;6689;53.400;12.486;2022-08-21T15:37:24;28.20;99.90
13245;DHT22;6689;53.400;12.486;2022-08-21T15:40:06;28.20;99.90
13245;DHT22;6689;53.400;12.486;2022-08-21T15:42:34;28.30;99.90
13245;DHT22;6689;53.400;12.486;2022-08-21T15:45:03;28.30;99.90
13245;DHT22;6689;53.400;12.486;2022-08-21T15:47:44;28.30;99.90
13245;DHT22;6689;53.400;12.486;2022-08-21T15:53:13;28.20;99.90
13245;DHT22;6689;53.400;12.486;2022-08-21T15:55:48;28.20;99.90
13245;DHT22;6689;53.400;12.486;2022-08-21T15:58:16;28.10;99.90
13245;DHT22;6689;53.400;12.486;2022-08-21T16:00:59;28.00;1.00
13245;DHT22;6689;53.400;12.486;2022-08-21T16:03:41;28.00;99.90
13245;DHT22;6689;53.400;12.486;2022-08-21T16:06:24;28.00;99.90
13245;DHT22;6689;53.400;12.486;2022-08-21T16:08:54;27.90;99.90
13245;DHT22;6689;53.400;12.486;2022-08-21T16:11:23;27.90;99.90
13245;DHT22;6689;53.400;12.486;2022-08-21T16:14:04;27.90;99.90
13245;DHT22;6689;53.400;12.486;2022-08-21T16:16:34;27.90;99.90
13245;DHT22;6689;53.400;12.486;2022-08-21T16:19:03;27.90;99.90
13245;DHT22;6689;53.400;12.486;2022-08-21T16:21:32;27.60;99.90
13245;DHT22;6689;53.400;12.486;2022-08-21T16:24:03;27.70;99.90
13245;DHT22;6689;53.400;12.486;2022-08-21T16:26:33;27.80;99.90
13245;DHT22;6689;53.400;12.486;2022-08-21T16:29:03;27.80;1.00
13245;DHT22;6689;53.400;12.486;2022-08-21T16:31:32;27.80;1.40